sensor_id;sensor_type;location;lat;lon;timestamp;P1;durP1;ratioP1;P2;durP2;ratioP2
18383;SDS011;9318;48.644;9.456;2023-06-22T00:00:00;0.52;;;0.52;;
18383;SDS011;9318;48.644;9.456;2023-06-22T00:02:28;0.50;;;0.50;;
18383;SDS011;9318;48.644;9.456;2023-06-22T00:04:54;0.52;;;0.52;;
18383;SDS011;9318;48.644;9.456;2023-06-22T00:07:21;0.60;;;0.60;;
18383;SDS011;9318;48.644;9.456;2023-06-22T00:09:48;0.60;;;0.60;;
18383;SDS011;9318;48.644;9.456;2023-06-22T00:12:15;0.60;;;0.60;;
18383;SDS011;9318;48.644;9.456;2023-06-22T00:14:42;0.60;;;0.60;;
18383;SDS011;9318;48.644;9.456;2023-06-22T00:17:10;0.60;;;0.60;;
18383;SDS011;9318;48.644;9.456;2023-06-22T00:19:37;0.70;;;0.70;;
18383;SDS011;9318;48.644;9.456;2023-06-22T00:22:05;0.50;;;0.50;;
18383;SDS011;9318;48.644;9.456;2023-06-22T00:24:32;0.65;;;0.65;;
18383;SDS011;9318;48.644;9.456;2023-06-22T00:26:59;0.57;;;0.57;;
18383;SDS011;9318;48.644;9.456;2023-06-22T00:29:25;0.70;;;0.70;;
18383;SDS011;9318;48.644;9.456;2023-06-22T00:31:52;0.60;;;0.60;;
18383;SDS011;9318;48.644;9.456;2023-06-22T00:34:20;0.70;;;0.70;;
18383;SDS011;9318;48.644;9.456;2023-06-22T00:36:47;0.60;;;0.60;;
18383;SDS011;9318;48.644;9.456;2023-06-22T00:39:13;0.55;;;0.55;;
18383;SDS011;9318;48.644;9.456;2023-06-22T00:41:40;0.50;;;0.50;;
18383;SDS011;9318;48.644;9.456;2023-06-22T00:44:07;0.40;;;0.40;;
18383;SDS011;9318;48.644;9.456;2023-06-22T00:46:34;0.50;;;0.50;;
18383;SDS011;9318;48.644;9.456;2023-06-22T00:49:00;0.50;;;0.50;;
18383;SDS011;9318;48.644;9.456;2023-06-22T00:51:31;0.60;;;0.60;;
18383;SDS011;9318;48.644;9.456;2023-06-22T00:53:58;0.50;;;0.50;;
18383;SDS011;9318;48.644;9.456;2023-06-22T00:56:25;0.60;;;0.60;;
18383;SDS011;9318;48.644;9.456;2023-06-22T00:58:55;0.70;;;0.70;;
18383;SDS011;9318;48.644;9.456;2023-06-22T01:01:31;0.60;;;0.60;;
18383;SDS011;9318;48.644;9.456;2023-06-22T01:03:59;0.70;;;0.70;;
18383;SDS011;9318;48.644;9.456;2023-06-22T01:06:26;0.60;;;0.60;;
18383;SDS011;9318;48.644;9.456;2023-06-22T01:09:06;0.60;;;0.60;;
18383;SDS011;9318;48.644;9.456;2023-06-22T01:11:41;0.60;;;0.60;;
18383;SDS011;9318;48.644;9.456;2023-06-22T01:14:12;0.60;;;0.60;;
18383;SDS011;9318;48.644;9.456;2023-06-22T01:16:44;0.60;;;0.60;;
18383;SDS011;9318;48.644;9.456;2023-06-22T01:19:18;0.50;;;0.50;;
18383;SDS011;9318;48.644;9.456;2023-06-22T01:21:54;0.73;;;0.73;;
18383;SDS011;9318;48.644;9.456;2023-06-22T01:24:26;0.60;;;0.60;;
18383;SDS011;9318;48.644;9.456;2023-06-22T01:26:57;0.50;;;0.50;;
18383;SDS011;9318;48.644;9.456;2023-06-22T01:29:37;0.70;;;0.70;;
18383;SDS011;9318;48.644;9.456;2023-06-22T01:32:05;0.60;;;0.60;;
18383;SDS011;9318;48.644;9.456;2023-06-22T01:34:32;0.70;;;0.70;;
18383;SDS011;9318;48.644;9.456;2023-06-22T01:37:00;0.60;;;0.60;;
18383;SDS011;9318;48.644;9.456;2023-06-22T01:39:28;0.60;;;0.60;;
18383;SDS011;9318;48.644;9.456;2023-06-22T01:41:56;0.60;;;0.60;;
18383;SDS011;9318;48.644;9.456;2023-06-22T01:44:23;0.65;;;0.65;;
18383;SDS011;9318;48.644;9.456;2023-06-22T01:46:53;0.60;;;0.60;;
18383;SDS011;9318;48.644;9.456;2023-06-22T01:49:20;0.60;;;0.60;;
18383;SDS011;9318;48.644;9.456;2023-06-22T01:51:47;0.60;;;0.60;;
18383;SDS011;9318;48.644;9.456;2023-06-22T01:54:14;0.50;;;0.50;;
18383;SDS011;9318;48.644;9.456;2023-06-22T01:56:41;0.60;;;0.60;;
18383;SDS011;9318;48.644;9.456;2023-06-22T01:59:09;0.68;;;0.68;;
18383;SDS011;9318;48.644;9.456;2023-06-22T02:01:42;0.60;;;0.60;;
18383;SDS011;9318;48.644;9.456;2023-06-22T02:04:16;0.50;;;0.50;;
18383;SDS011;9318;48.644;9.456;2023-06-22T02:06:47;0.63;;;0.63;;
18383;SDS011;9318;48.644;9.456;2023-06-22T02:09:18;0.70;;;0.70;;
18383;SDS011;9318;48.644;9.456;2023-06-22T02:11:47;0.60;;;0.60;;
18383;SDS011;9318;48.644;9.456;2023-06-22T02:14:18;0.50;;;0.50;;
18383;SDS011;9318;48.644;9.456;2023-06-22T02:16:46;0.60;;;0.60;;
18383;SDS011;9318;48.644;9.456;2023-06-22T02:19:14;0.60;;;0.60;;
18383;SDS011;9318;48.644;9.456;2023-06-22T02:21:43;0.60;;;0.60;;
18383;SDS011;9318;48.644;9.456;2023-06-22T02:24:10;0.60;;;0.60;;
18383;SDS011;9318;48.644;9.456;2023-06-22T02:26:37;0.60;;;0.60;;
18383;SDS011;9318;48.644;9.456;2023-06-22T02:29:04;0.70;;;0.70;;
18383;SDS011;9318;48.644;9.456;2023-06-22T02:31:31;0.60;;;0.60;;
18383;SDS011;9318;48.644;9.456;2023-06-22T02:33:58;0.63;;;0.63;;
18383;SDS011;9318;48.644;9.456;2023-06-22T02:36:27;0.60;;;0.60;;
18383;SDS011;9318;48.644;9.456;2023-06-22T02:38:55;0.50;;;0.50;;
18383;SDS011;9318;48.644;9.456;2023-06-22T02:41:24;0.60;;;0.60;;
18383;SDS011;9318;48.644;9.456;2023-06-22T02:43:50;0.65;;;0.65;;
18383;SDS011;9318;48.644;9.456;2023-06-22T02:46:17;0.70;;;0.70;;
18383;SDS011;9318;48.644;9.456;2023-06-22T02:48:44;0.60;;;0.60;;
18383;SDS011;9318;48.644;9.456;2023-06-22T02:51:11;0.60;;;0.60;;
18383;SDS011;9318;48.644;9.456;2023-06-22T02:53:39;0.60;;;0.60;;
18383;SDS011;9318;48.644;9.456;2023-06-22T02:56:09;0.50;;;0.50;;
18383;SDS011;9318;48.644;9.456;2023-06-22T02:58:37;0.50;;;0.50;;
18383;SDS011;9318;48.644;9.456;2023-06-22T03:01:04;0.50;;;0.50;;
18383;SDS011;9318;48.644;9.456;2023-06-22T03:03:31;0.60;;;0.60;;
18383;SDS011;9318;48.644;9.456;2023-06-22T03:05:58;0.70;;;0.70;;
18383;SDS011;9318;48.644;9.456;2023-06-22T03:08:25;0.60;;;0.60;;
18383;SDS011;9318;48.644;9.456;2023-06-22T03:10:54;0.60;;;0.60;;
18383;SDS011;9318;48.644;9.456;2023-06-22T03:13:21;0.65;;;0.65;;
18383;SDS011;9318;48.644;9.456;2023-06-22T03:15:47;0.70;;;0.70;;
18383;SDS011;9318;48.644;9.456;2023-06-22T03:18:14;0.60;;;0.60;;
18383;SDS011;9318;48.644;9.456;2023-06-22T03:20:41;0.60;;;0.60;;
18383;SDS011;9318;48.644;9.456;2023-06-22T03:23:08;0.70;;;0.70;;
18383;SDS011;9318;48.644;9.456;2023-06-22T03:25:35;0.60;;;0.60;;
18383;SDS011;9318;48.644;9.456;2023-06-22T03:28:03;0.80;;;0.80;;
18383;SDS011;9318;48.644;9.456;2023-06-22T03:30:30;0.60;;;0.60;;
18383;SDS011;9318;48.644;9.456;2023-06-22T03:32:57;0.60;;;0.60;;
18383;SDS011;9318;48.644;9.456;2023-06-22T03:35:24;0.60;;;0.60;;
18383;SDS011;9318;48.644;9.456;2023-06-22T03:37:50;0.60;;;0.60;;
18383;SDS011;9318;48.644;9.456;2023-06-22T03:40:17;0.60;;;0.60;;
18383;SDS011;9318;48.644;9.456;2023-06-22T03:42:44;0.70;;;0.70;;
18383;SDS011;9318;48.644;9.456;2023-06-22T03:45:12;0.63;;;0.63;;
18383;SDS011;9318;48.644;9.456;2023-06-22T03:47:39;0.80;;;0.80;;
18383;SDS011;9318;48.644;9.456;2023-06-22T03:50:06;0.60;;;0.60;;
18383;SDS011;9318;48.644;9.456;2023-06-22T03:52:33;0.60;;;0.60;;
18383;SDS011;9318;48.644;9.456;2023-06-22T03:55:00;0.57;;;0.57;;
18383;SDS011;9318;48.644;9.456;2023-06-22T03:57:27;0.70;;;0.70;;
18383;SDS011;9318;48.644;9.456;2023-06-22T03:59:56;0.60;;;0.60;;
18383;SDS011;9318;48.644;9.456;2023-06-22T04:02:24;0.70;;;0.70;;
18383;SDS011;9318;48.644;9.456;2023-06-22T04:04:51;0.50;;;0.50;;
18383;SDS011;9318;48.644;9.456;2023-06-22T04:07:18;0.60;;;0.60;;
18383;SDS011;9318;48.644;9.456;2023-06-22T04:09:45;0.60;;;0.60;;
18383;SDS011;9318;48.644;9.456;2023-06-22T04:12:11;0.60;;;0.60;;
18383;SDS011;9318;48.644;9.456;2023-06-22T04:14:38;0.70;;;0.70;;
18383;SDS011;9318;48.644;9.456;2023-06-22T04:17:05;0.70;;;0.70;;
18383;SDS011;9318;48.644;9.456;2023-06-22T04:19:33;0.65;;;0.65;;
18383;SDS011;9318;48.644;9.456;2023-06-22T04:22:00;0.50;;;0.50;;
18383;SDS011;9318;48.644;9.456;2023-06-22T04:24:26;0.50;;;0.50;;
18383;SDS011;9318;48.644;9.456;2023-06-22T04:26:53;0.70;;;0.70;;
18383;SDS011;9318;48.644;9.456;2023-06-22T04:29:20;0.50;;;0.50;;
18383;SDS011;9318;48.644;9.456;2023-06-22T04:31:55;0.60;;;0.60;;
18383;SDS011;9318;48.644;9.456;2023-06-22T04:34:23;0.50;;;0.50;;
18383;SDS011;9318;48.644;9.456;2023-06-22T04:36:52;0.60;;;0.60;;
18383;SDS011;9318;48.644;9.456;2023-06-22T04:39:19;0.52;;;0.52;;
18383;SDS011;9318;48.644;9.456;2023-06-22T04:41:46;0.60;;;0.60;;
18383;SDS011;9318;48.644;9.456;2023-06-22T04:44:13;0.43;;;0.43;;
18383;SDS011;9318;48.644;9.456;2023-06-22T04:46:48;0.60;;;0.60;;
18383;SDS011;9318;48.644;9.456;2023-06-22T04:49:18;0.60;;;0.60;;
18383;SDS011;9318;48.644;9.456;2023-06-22T04:51:46;0.60;;;0.60;;
18383;SDS011;9318;48.644;9.456;2023-06-22T04:54:14;0.50;;;0.50;;
18383;SDS011;9318;48.644;9.456;2023-06-22T04:56:41;0.60;;;0.60;;
18383;SDS011;9318;48.644;9.456;2023-06-22T04:59:07;0.50;;;0.50;;
18383;SDS011;9318;48.644;9.456;2023-06-22T05:01:38;0.50;;;0.50;;
18383;SDS011;9318;48.644;9.456;2023-06-22T05:04:04;0.55;;;0.55;;
18383;SDS011;9318;48.644;9.456;2023-06-22T05:06:31;0.45;;;0.45;;
18383;SDS011;9318;48.644;9.456;2023-06-22T05:08:58;0.57;;;0.57;;
18383;SDS011;9318;48.644;9.456;2023-06-22T05:11:26;0.50;;;0.50;;
18383;SDS011;9318;48.644;9.456;2023-06-22T05:13:54;0.50;;;0.50;;
18383;SDS011;9318;48.644;9.456;2023-06-22T05:16:21;0.50;;;0.50;;
18383;SDS011;9318;48.644;9.456;2023-06-22T05:18:49;0.50;;;0.50;;
18383;SDS011;9318;48.644;9.456;2023-06-22T05:21:18;0.50;;;0.50;;
18383;SDS011;9318;48.644;9.456;2023-06-22T05:23:47;0.50;;;0.50;;
18383;SDS011;9318;48.644;9.456;2023-06-22T05:26:14;0.43;;;0.43;;
18383;SDS011;9318;48.644;9.456;2023-06-22T05:28:42;0.40;;;0.40;;
18383;SDS011;9318;48.644;9.456;2023-06-22T05:31:10;0.52;;;0.52;;
18383;SDS011;9318;48.644;9.456;2023-06-22T05:33:37;0.50;;;0.50;;
18383;SDS011;9318;48.644;9.456;2023-06-22T05:36:04;0.40;;;0.40;;
18383;SDS011;9318;48.644;9.456;2023-06-22T05:38:31;0.40;;;0.40;;
18383;SDS011;9318;48.644;9.456;2023-06-22T05:40:58;0.52;;;0.52;;
18383;SDS011;9318;48.644;9.456;2023-06-22T05:43:25;0.47;;;0.47;;
18383;SDS011;9318;48.644;9.456;2023-06-22T05:45:53;0.40;;;0.40;;
18383;SDS011;9318;48.644;9.456;2023-06-22T05:48:19;0.40;;;0.40;;
18383;SDS011;9318;48.644;9.456;2023-06-22T05:50:46;0.50;;;0.50;;
18383;SDS011;9318;48.644;9.456;2023-06-22T05:53:13;0.50;;;0.50;;
18383;SDS011;9318;48.644;9.456;2023-06-22T05:55:40;0.50;;;0.50;;
18383;SDS011;9318;48.644;9.456;2023-06-22T05:58:07;0.40;;;0.40;;
18383;SDS011;9318;48.644;9.456;2023-06-22T06:00:34;0.50;;;0.50;;
18383;SDS011;9318;48.644;9.456;2023-06-22T06:03:03;0.50;;;0.50;;
18383;SDS011;9318;48.644;9.456;2023-06-22T06:05:29;0.40;;;0.40;;
18383;SDS011;9318;48.644;9.456;2023-06-22T06:07:56;0.30;;;0.30;;
18383;SDS011;9318;48.644;9.456;2023-06-22T06:10:23;0.30;;;0.30;;
18383;SDS011;9318;48.644;9.456;2023-06-22T06:12:50;0.30;;;0.30;;
18383;SDS011;9318;48.644;9.456;2023-06-22T06:15:17;0.40;;;0.40;;
18383;SDS011;9318;48.644;9.456;2023-06-22T06:17:46;0.30;;;0.30;;
18383;SDS011;9318;48.644;9.456;2023-06-22T06:20:15;0.30;;;0.30;;
18383;SDS011;9318;48.644;9.456;2023-06-22T06:22:44;0.40;;;0.40;;
18383;SDS011;9318;48.644;9.456;2023-06-22T06:25:10;0.30;;;0.30;;
18383;SDS011;9318;48.644;9.456;2023-06-22T06:27:41;0.38;;;0.38;;
18383;SDS011;9318;48.644;9.456;2023-06-22T06:30:08;0.40;;;0.40;;
18383;SDS011;9318;48.644;9.456;2023-06-22T06:32:35;0.30;;;0.30;;
18383;SDS011;9318;48.644;9.456;2023-06-22T06:35:03;0.30;;;0.30;;
18383;SDS011;9318;48.644;9.456;2023-06-22T06:37:32;0.30;;;0.30;;
18383;SDS011;9318;48.644;9.456;2023-06-22T06:40:01;0.25;;;0.25;;
18383;SDS011;9318;48.644;9.456;2023-06-22T06:42:30;0.30;;;0.30;;
18383;SDS011;9318;48.644;9.456;2023-06-22T06:44:57;0.30;;;0.30;;
18383;SDS011;9318;48.644;9.456;2023-06-22T06:47:24;0.30;;;0.30;;
18383;SDS011;9318;48.644;9.456;2023-06-22T06:49:50;0.30;;;0.30;;
18383;SDS011;9318;48.644;9.456;2023-06-22T06:52:17;0.30;;;0.30;;
18383;SDS011;9318;48.644;9.456;2023-06-22T06:54:46;0.30;;;0.30;;
18383;SDS011;9318;48.644;9.456;2023-06-22T06:57:12;0.30;;;0.30;;
18383;SDS011;9318;48.644;9.456;2023-06-22T06:59:40;0.32;;;0.32;;
18383;SDS011;9318;48.644;9.456;2023-06-22T07:02:06;0.30;;;0.30;;
18383;SDS011;9318;48.644;9.456;2023-06-22T07:04:33;0.30;;;0.30;;
18383;SDS011;9318;48.644;9.456;2023-06-22T07:07:01;0.30;;;0.30;;
18383;SDS011;9318;48.644;9.456;2023-06-22T07:09:28;0.30;;;0.30;;
18383;SDS011;9318;48.644;9.456;2023-06-22T07:11:56;0.30;;;0.30;;
18383;SDS011;9318;48.644;9.456;2023-06-22T07:14:23;0.30;;;0.30;;
18383;SDS011;9318;48.644;9.456;2023-06-22T07:16:50;0.30;;;0.30;;
18383;SDS011;9318;48.644;9.456;2023-06-22T07:19:16;0.30;;;0.30;;
18383;SDS011;9318;48.644;9.456;2023-06-22T07:21:50;0.30;;;0.30;;
18383;SDS011;9318;48.644;9.456;2023-06-22T07:24:17;0.22;;;0.22;;
18383;SDS011;9318;48.644;9.456;2023-06-22T07:26:44;0.28;;;0.28;;
18383;SDS011;9318;48.644;9.456;2023-06-22T07:29:13;0.20;;;0.20;;
18383;SDS011;9318;48.644;9.456;2023-06-22T07:31:39;0.30;;;0.30;;
18383;SDS011;9318;48.644;9.456;2023-06-22T07:34:06;0.30;;;0.30;;
18383;SDS011;9318;48.644;9.456;2023-06-22T07:36:33;0.20;;;0.20;;
18383;SDS011;9318;48.644;9.456;2023-06-22T07:39:00;0.25;;;0.25;;
18383;SDS011;9318;48.644;9.456;2023-06-22T07:41:27;0.30;;;0.30;;
18383;SDS011;9318;48.644;9.456;2023-06-22T07:43:54;0.30;;;0.30;;
18383;SDS011;9318;48.644;9.456;2023-06-22T07:46:22;0.20;;;0.20;;
18383;SDS011;9318;48.644;9.456;2023-06-22T07:48:49;0.20;;;0.20;;
18383;SDS011;9318;48.644;9.456;2023-06-22T07:51:16;0.30;;;0.30;;
18383;SDS011;9318;48.644;9.456;2023-06-22T07:53:43;0.20;;;0.20;;
18383;SDS011;9318;48.644;9.456;2023-06-22T07:56:10;0.17;;;0.17;;
18383;SDS011;9318;48.644;9.456;2023-06-22T07:58:37;0.30;;;0.30;;
18383;SDS011;9318;48.644;9.456;2023-06-22T08:01:04;0.17;;;0.17;;
18383;SDS011;9318;48.644;9.456;2023-06-22T08:03:32;0.22;;;0.22;;
18383;SDS011;9318;48.644;9.456;2023-06-22T08:05:59;0.20;;;0.20;;
18383;SDS011;9318;48.644;9.456;2023-06-22T08:08:26;0.30;;;0.30;;
18383;SDS011;9318;48.644;9.456;2023-06-22T08:10:52;0.20;;;0.20;;
18383;SDS011;9318;48.644;9.456;2023-06-22T08:13:19;0.20;;;0.20;;
18383;SDS011;9318;48.644;9.456;2023-06-22T08:15:46;0.20;;;0.20;;
18383;SDS011;9318;48.644;9.456;2023-06-22T08:18:13;0.20;;;0.20;;
18383;SDS011;9318;48.644;9.456;2023-06-22T08:20:41;0.20;;;0.20;;
18383;SDS011;9318;48.644;9.456;2023-06-22T08:23:08;0.30;;;0.30;;
18383;SDS011;9318;48.644;9.456;2023-06-22T08:25:34;0.20;;;0.20;;
18383;SDS011;9318;48.644;9.456;2023-06-22T08:28:01;0.30;;;0.30;;
18383;SDS011;9318;48.644;9.456;2023-06-22T08:30:29;0.20;;;0.20;;
18383;SDS011;9318;48.644;9.456;2023-06-22T08:32:56;0.20;;;0.20;;
18383;SDS011;9318;48.644;9.456;2023-06-22T08:35:23;0.20;;;0.20;;
18383;SDS011;9318;48.644;9.456;2023-06-22T08:37:51;0.10;;;0.10;;
18383;SDS011;9318;48.644;9.456;2023-06-22T08:40:20;0.20;;;0.20;;
18383;SDS011;9318;48.644;9.456;2023-06-22T08:42:48;0.20;;;0.20;;
18383;SDS011;9318;48.644;9.456;2023-06-22T08:45:15;0.20;;;0.20;;
18383;SDS011;9318;48.644;9.456;2023-06-22T08:47:42;0.20;;;0.20;;
18383;SDS011;9318;48.644;9.456;2023-06-22T08:50:09;0.30;;;0.30;;
18383;SDS011;9318;48.644;9.456;2023-06-22T08:52:38;0.20;;;0.20;;
18383;SDS011;9318;48.644;9.456;2023-06-22T08:55:08;0.20;;;0.20;;
18383;SDS011;9318;48.644;9.456;2023-06-22T08:57:35;0.20;;;0.20;;
18383;SDS011;9318;48.644;9.456;2023-06-22T09:00:04;0.20;;;0.20;;
18383;SDS011;9318;48.644;9.456;2023-06-22T09:02:40;0.20;;;0.20;;
18383;SDS011;9318;48.644;9.456;2023-06-22T09:05:07;0.20;;;0.20;;
18383;SDS011;9318;48.644;9.456;2023-06-22T09:07:34;0.20;;;0.20;;
18383;SDS011;9318;48.644;9.456;2023-06-22T09:10:01;0.30;;;0.30;;
18383;SDS011;9318;48.644;9.456;2023-06-22T09:12:31;0.30;;;0.30;;
18383;SDS011;9318;48.644;9.456;2023-06-22T09:14:58;0.20;;;0.20;;
18383;SDS011;9318;48.644;9.456;2023-06-22T09:17:26;0.20;;;0.20;;
18383;SDS011;9318;48.644;9.456;2023-06-22T09:19:53;0.30;;;0.30;;
18383;SDS011;9318;48.644;9.456;2023-06-22T09:22:20;0.20;;;0.20;;
18383;SDS011;9318;48.644;9.456;2023-06-22T09:24:47;0.17;;;0.17;;
18383;SDS011;9318;48.644;9.456;2023-06-22T09:27:14;0.30;;;0.30;;
18383;SDS011;9318;48.644;9.456;2023-06-22T09:29:42;0.20;;;0.20;;
18383;SDS011;9318;48.644;9.456;2023-06-22T09:32:08;0.20;;;0.20;;
18383;SDS011;9318;48.644;9.456;2023-06-22T09:34:35;0.30;;;0.30;;
18383;SDS011;9318;48.644;9.456;2023-06-22T09:37:02;0.20;;;0.20;;
18383;SDS011;9318;48.644;9.456;2023-06-22T09:39:29;0.30;;;0.30;;
18383;SDS011;9318;48.644;9.456;2023-06-22T09:41:57;0.20;;;0.20;;
18383;SDS011;9318;48.644;9.456;2023-06-22T09:44:24;0.13;;;0.13;;
18383;SDS011;9318;48.644;9.456;2023-06-22T09:46:52;0.30;;;0.30;;
18383;SDS011;9318;48.644;9.456;2023-06-22T09:49:19;0.20;;;0.20;;
18383;SDS011;9318;48.644;9.456;2023-06-22T09:51:46;0.20;;;0.20;;
18383;SDS011;9318;48.644;9.456;2023-06-22T09:54:12;0.20;;;0.20;;
18383;SDS011;9318;48.644;9.456;2023-06-22T09:56:39;0.20;;;0.20;;
18383;SDS011;9318;48.644;9.456;2023-06-22T09:59:06;0.30;;;0.30;;
18383;SDS011;9318;48.644;9.456;2023-06-22T10:01:33;0.30;;;0.30;;
18383;SDS011;9318;48.644;9.456;2023-06-22T10:04:01;0.20;;;0.20;;
18383;SDS011;9318;48.644;9.456;2023-06-22T10:06:28;0.20;;;0.20;;
18383;SDS011;9318;48.644;9.456;2023-06-22T10:08:55;0.20;;;0.20;;
18383;SDS011;9318;48.644;9.456;2023-06-22T10:11:21;0.20;;;0.20;;
18383;SDS011;9318;48.644;9.456;2023-06-22T10:13:54;0.28;;;0.28;;
18383;SDS011;9318;48.644;9.456;2023-06-22T10:16:20;0.20;;;0.20;;
18383;SDS011;9318;48.644;9.456;2023-06-22T10:18:47;0.30;;;0.30;;
18383;SDS011;9318;48.644;9.456;2023-06-22T10:21:15;0.20;;;0.20;;
18383;SDS011;9318;48.644;9.456;2023-06-22T10:23:42;0.20;;;0.20;;
18383;SDS011;9318;48.644;9.456;2023-06-22T10:26:08;0.30;;;0.30;;
18383;SDS011;9318;48.644;9.456;2023-06-22T10:28:35;0.20;;;0.20;;
18383;SDS011;9318;48.644;9.456;2023-06-22T10:31:02;0.20;;;0.20;;
18383;SDS011;9318;48.644;9.456;2023-06-22T10:33:29;0.20;;;0.20;;
18383;SDS011;9318;48.644;9.456;2023-06-22T10:35:55;0.20;;;0.20;;
18383;SDS011;9318;48.644;9.456;2023-06-22T10:38:23;0.30;;;0.30;;
18383;SDS011;9318;48.644;9.456;2023-06-22T10:40:50;0.20;;;0.20;;
18383;SDS011;9318;48.644;9.456;2023-06-22T10:43:17;0.20;;;0.20;;
18383;SDS011;9318;48.644;9.456;2023-06-22T10:45:44;0.20;;;0.20;;
18383;SDS011;9318;48.644;9.456;2023-06-22T10:48:11;0.25;;;0.25;;
18383;SDS011;9318;48.644;9.456;2023-06-22T10:50:38;0.20;;;0.20;;
18383;SDS011;9318;48.644;9.456;2023-06-22T10:53:05;0.20;;;0.20;;
18383;SDS011;9318;48.644;9.456;2023-06-22T10:55:33;0.30;;;0.30;;
18383;SDS011;9318;48.644;9.456;2023-06-22T10:58:00;0.20;;;0.20;;
18383;SDS011;9318;48.644;9.456;2023-06-22T11:00:26;0.25;;;0.25;;
18383;SDS011;9318;48.644;9.456;2023-06-22T11:02:53;0.28;;;0.28;;
18383;SDS011;9318;48.644;9.456;2023-06-22T11:05:20;0.20;;;0.20;;
18383;SDS011;9318;48.644;9.456;2023-06-22T11:07:46;0.22;;;0.22;;
18383;SDS011;9318;48.644;9.456;2023-06-22T11:10:14;0.20;;;0.20;;
18383;SDS011;9318;48.644;9.456;2023-06-22T11:12:42;0.35;;;0.35;;
18383;SDS011;9318;48.644;9.456;2023-06-22T11:15:09;0.30;;;0.30;;
18383;SDS011;9318;48.644;9.456;2023-06-22T11:17:36;0.20;;;0.20;;
18383;SDS011;9318;48.644;9.456;2023-06-22T11:20:03;0.20;;;0.20;;
18383;SDS011;9318;48.644;9.456;2023-06-22T11:22:35;0.20;;;0.20;;
18383;SDS011;9318;48.644;9.456;2023-06-22T11:25:02;0.20;;;0.20;;
18383;SDS011;9318;48.644;9.456;2023-06-22T11:27:30;0.30;;;0.30;;
18383;SDS011;9318;48.644;9.456;2023-06-22T11:29:58;0.20;;;0.20;;
18383;SDS011;9318;48.644;9.456;2023-06-22T11:32:25;0.20;;;0.20;;
18383;SDS011;9318;48.644;9.456;2023-06-22T11:34:52;0.20;;;0.20;;
18383;SDS011;9318;48.644;9.456;2023-06-22T11:37:18;0.20;;;0.20;;
18383;SDS011;9318;48.644;9.456;2023-06-22T11:39:45;0.20;;;0.20;;
18383;SDS011;9318;48.644;9.456;2023-06-22T11:42:12;0.20;;;0.20;;
18383;SDS011;9318;48.644;9.456;2023-06-22T11:44:38;0.20;;;0.20;;
18383;SDS011;9318;48.644;9.456;2023-06-22T11:47:07;0.30;;;0.30;;
18383;SDS011;9318;48.644;9.456;2023-06-22T11:49:33;0.20;;;0.20;;
18383;SDS011;9318;48.644;9.456;2023-06-22T11:52:00;0.20;;;0.20;;
18383;SDS011;9318;48.644;9.456;2023-06-22T11:54:27;0.20;;;0.20;;
18383;SDS011;9318;48.644;9.456;2023-06-22T11:56:54;0.20;;;0.20;;
18383;SDS011;9318;48.644;9.456;2023-06-22T11:59:21;0.20;;;0.20;;
18383;SDS011;9318;48.644;9.456;2023-06-22T12:01:47;0.20;;;0.20;;
18383;SDS011;9318;48.644;9.456;2023-06-22T12:04:17;0.20;;;0.20;;
18383;SDS011;9318;48.644;9.456;2023-06-22T12:06:44;0.30;;;0.30;;
18383;SDS011;9318;48.644;9.456;2023-06-22T12:09:10;0.20;;;0.20;;
18383;SDS011;9318;48.644;9.456;2023-06-22T12:11:38;0.20;;;0.20;;
18383;SDS011;9318;48.644;9.456;2023-06-22T12:14:05;0.25;;;0.25;;
18383;SDS011;9318;48.644;9.456;2023-06-22T12:16:32;0.30;;;0.30;;
18383;SDS011;9318;48.644;9.456;2023-06-22T12:18:58;0.10;;;0.10;;
18383;SDS011;9318;48.644;9.456;2023-06-22T12:21:27;0.20;;;0.20;;
18383;SDS011;9318;48.644;9.456;2023-06-22T12:23:54;0.30;;;0.30;;
18383;SDS011;9318;48.644;9.456;2023-06-22T12:26:21;0.20;;;0.20;;
18383;SDS011;9318;48.644;9.456;2023-06-22T12:28:47;0.20;;;0.20;;
18383;SDS011;9318;48.644;9.456;2023-06-22T12:31:14;0.30;;;0.30;;
18383;SDS011;9318;48.644;9.456;2023-06-22T12:33:41;0.20;;;0.20;;
18383;SDS011;9318;48.644;9.456;2023-06-22T12:36:08;0.30;;;0.30;;
18383;SDS011;9318;48.644;9.456;2023-06-22T12:38:36;0.20;;;0.20;;
18383;SDS011;9318;48.644;9.456;2023-06-22T12:41:03;0.20;;;0.20;;
18383;SDS011;9318;48.644;9.456;2023-06-22T12:43:29;0.20;;;0.20;;
18383;SDS011;9318;48.644;9.456;2023-06-22T12:45:56;0.28;;;0.28;;
18383;SDS011;9318;48.644;9.456;2023-06-22T12:48:24;0.22;;;0.22;;
18383;SDS011;9318;48.644;9.456;2023-06-22T12:50:51;0.30;;;0.30;;
18383;SDS011;9318;48.644;9.456;2023-06-22T12:53:18;0.20;;;0.20;;
18383;SDS011;9318;48.644;9.456;2023-06-22T12:55:46;0.20;;;0.20;;
18383;SDS011;9318;48.644;9.456;2023-06-22T12:58:13;0.22;;;0.22;;
18383;SDS011;9318;48.644;9.456;2023-06-22T13:00:40;0.25;;;0.25;;
18383;SDS011;9318;48.644;9.456;2023-06-22T13:03:07;0.30;;;0.30;;
18383;SDS011;9318;48.644;9.456;2023-06-22T13:05:33;0.20;;;0.20;;
18383;SDS011;9318;48.644;9.456;2023-06-22T13:08:01;0.20;;;0.20;;
18383;SDS011;9318;48.644;9.456;2023-06-22T13:10:28;0.30;;;0.30;;
18383;SDS011;9318;48.644;9.456;2023-06-22T13:12:56;0.25;;;0.25;;
18383;SDS011;9318;48.644;9.456;2023-06-22T13:15:25;0.30;;;0.30;;
18383;SDS011;9318;48.644;9.456;2023-06-22T13:17:52;0.20;;;0.20;;
18383;SDS011;9318;48.644;9.456;2023-06-22T13:20:19;0.30;;;0.30;;
18383;SDS011;9318;48.644;9.456;2023-06-22T13:22:46;0.20;;;0.20;;
18383;SDS011;9318;48.644;9.456;2023-06-22T13:25:13;0.30;;;0.30;;
18383;SDS011;9318;48.644;9.456;2023-06-22T13:27:44;0.30;;;0.30;;
18383;SDS011;9318;48.644;9.456;2023-06-22T13:30:14;0.28;;;0.28;;
18383;SDS011;9318;48.644;9.456;2023-06-22T13:32:41;0.20;;;0.20;;
18383;SDS011;9318;48.644;9.456;2023-06-22T13:35:08;0.20;;;0.20;;
18383;SDS011;9318;48.644;9.456;2023-06-22T13:37:35;0.20;;;0.20;;
18383;SDS011;9318;48.644;9.456;2023-06-22T13:40:02;0.20;;;0.20;;
18383;SDS011;9318;48.644;9.456;2023-06-22T13:42:31;0.22;;;0.22;;
18383;SDS011;9318;48.644;9.456;2023-06-22T13:44:58;0.30;;;0.30;;
18383;SDS011;9318;48.644;9.456;2023-06-22T13:47:26;0.30;;;0.30;;
18383;SDS011;9318;48.644;9.456;2023-06-22T13:49:53;0.28;;;0.28;;
18383;SDS011;9318;48.644;9.456;2023-06-22T13:52:20;0.30;;;0.30;;
18383;SDS011;9318;48.644;9.456;2023-06-22T13:54:47;0.30;;;0.30;;
18383;SDS011;9318;48.644;9.456;2023-06-22T13:57:14;0.20;;;0.20;;
18383;SDS011;9318;48.644;9.456;2023-06-22T13:59:40;0.32;;;0.32;;
18383;SDS011;9318;48.644;9.456;2023-06-22T14:02:07;0.30;;;0.30;;
18383;SDS011;9318;48.644;9.456;2023-06-22T14:04:35;0.20;;;0.20;;
18383;SDS011;9318;48.644;9.456;2023-06-22T14:07:02;0.30;;;0.30;;
18383;SDS011;9318;48.644;9.456;2023-06-22T14:09:29;0.20;;;0.20;;
18383;SDS011;9318;48.644;9.456;2023-06-22T14:11:56;0.30;;;0.30;;
18383;SDS011;9318;48.644;9.456;2023-06-22T14:14:22;0.30;;;0.30;;
18383;SDS011;9318;48.644;9.456;2023-06-22T14:16:49;0.30;;;0.30;;
18383;SDS011;9318;48.644;9.456;2023-06-22T14:19:16;0.30;;;0.30;;
18383;SDS011;9318;48.644;9.456;2023-06-22T14:21:45;0.32;;;0.32;;
18383;SDS011;9318;48.644;9.456;2023-06-22T14:24:12;0.30;;;0.30;;
18383;SDS011;9318;48.644;9.456;2023-06-22T14:26:39;0.20;;;0.20;;
18383;SDS011;9318;48.644;9.456;2023-06-22T14:29:05;0.30;;;0.30;;
18383;SDS011;9318;48.644;9.456;2023-06-22T14:31:32;0.20;;;0.20;;
18383;SDS011;9318;48.644;9.456;2023-06-22T14:33:59;0.30;;;0.30;;
18383;SDS011;9318;48.644;9.456;2023-06-22T14:36:27;0.20;;;0.20;;
18383;SDS011;9318;48.644;9.456;2023-06-22T14:38:55;0.28;;;0.28;;
18383;SDS011;9318;48.644;9.456;2023-06-22T14:41:22;0.22;;;0.22;;
18383;SDS011;9318;48.644;9.456;2023-06-22T14:43:49;0.22;;;0.22;;
18383;SDS011;9318;48.644;9.456;2023-06-22T14:46:17;0.30;;;0.30;;
18383;SDS011;9318;48.644;9.456;2023-06-22T14:48:45;0.20;;;0.20;;
18383;SDS011;9318;48.644;9.456;2023-06-22T14:51:12;0.30;;;0.30;;
18383;SDS011;9318;48.644;9.456;2023-06-22T14:53:39;0.30;;;0.30;;
18383;SDS011;9318;48.644;9.456;2023-06-22T14:56:07;0.28;;;0.28;;
18383;SDS011;9318;48.644;9.456;2023-06-22T14:58:34;0.30;;;0.30;;
18383;SDS011;9318;48.644;9.456;2023-06-22T15:01:01;0.20;;;0.20;;